sensor_id;sensor_type;location;lat;lon;timestamp;P1;durP1;ratioP1;P2;durP2;ratioP2
60225;SDS011;46090;48.436;11.410;2022-08-21T00:01:39;4.57;;;1.20;;
60225;SDS011;46090;48.436;11.410;2022-08-21T00:04:08;6.60;;;1.50;;
60225;SDS011;46090;48.436;11.410;2022-08-21T00:06:37;2.88;;;1.15;;
60225;SDS011;46090;48.436;11.410;2022-08-21T00:09:07;3.53;;;1.17;;
60225;SDS011;46090;48.436;11.410;2022-08-21T00:11:38;2.90;;;1.00;;
60225;SDS011;46090;48.436;11.410;2022-08-21T00:14:09;4.65;;;1.20;;
60225;SDS011;46090;48.436;11.410;2022-08-21T00:16:39;3.65;;;1.40;;
60225;SDS011;46090;48.436;11.410;2022-08-21T00:19:07;4.25;;;1.10;;
60225;SDS011;46090;48.436;11.410;2022-08-21T00:21:36;4.05;;;1.27;;
60225;SDS011;46090;48.436;11.410;2022-08-21T00:24:04;3.65;;;1.30;;
60225;SDS011;46090;48.436;11.410;2022-08-21T00:26:35;3.75;;;1.30;;
60225;SDS011;46090;48.436;11.410;2022-08-21T00:29:03;10.55;;;1.50;;
60225;SDS011;46090;48.436;11.410;2022-08-21T00:31:36;3.63;;;1.45;;
60225;SDS011;46090;48.436;11.410;2022-08-21T00:34:04;4.13;;;1.60;;
60225;SDS011;46090;48.436;11.410;2022-08-21T00:36:34;4.60;;;1.40;;
60225;SDS011;46090;48.436;11.410;2022-08-21T00:39:03;4.57;;;1.58;;
60225;SDS011;46090;48.436;11.410;2022-08-21T00:41:34;5.82;;;1.30;;
60225;SDS011;46090;48.436;11.410;2022-08-21T00:44:07;8.48;;;1.65;;
60225;SDS011;46090;48.436;11.410;2022-08-21T00:46:38;5.25;;;1.50;;
60225;SDS011;46090;48.436;11.410;2022-08-21T00:49:07;5.80;;;1.42;;
60225;SDS011;46090;48.436;11.410;2022-08-21T00:51:57;10.00;;;1.50;;
60225;SDS011;46090;48.436;11.410;2022-08-21T00:54:24;4.03;;;1.60;;
60225;SDS011;46090;48.436;11.410;2022-08-21T00:56:54;3.45;;;1.20;;
60225;SDS011;46090;48.436;11.410;2022-08-21T00:59:26;4.03;;;1.55;;
60225;SDS011;46090;48.436;11.410;2022-08-21T01:01:54;5.20;;;1.40;;
60225;SDS011;46090;48.436;11.410;2022-08-21T01:04:24;3.67;;;1.52;;
60225;SDS011;46090;48.436;11.410;2022-08-21T01:06:52;4.50;;;1.13;;
60225;SDS011;46090;48.436;11.410;2022-08-21T01:09:19;5.85;;;2.03;;
60225;SDS011;46090;48.436;11.410;2022-08-21T01:11:48;3.85;;;1.13;;
60225;SDS011;46090;48.436;11.410;2022-08-21T01:14:17;5.07;;;1.50;;
60225;SDS011;46090;48.436;11.410;2022-08-21T01:16:48;5.05;;;1.55;;
60225;SDS011;46090;48.436;11.410;2022-08-21T01:19:17;3.83;;;1.52;;
60225;SDS011;46090;48.436;11.410;2022-08-21T01:21:45;3.90;;;1.60;;
60225;SDS011;46090;48.436;11.410;2022-08-21T01:24:12;4.40;;;1.70;;
60225;SDS011;46090;48.436;11.410;2022-08-21T01:26:40;5.32;;;1.38;;
60225;SDS011;46090;48.436;11.410;2022-08-21T01:29:15;4.00;;;1.38;;
60225;SDS011;46090;48.436;11.410;2022-08-21T01:34:11;5.05;;;1.70;;
60225;SDS011;46090;48.436;11.410;2022-08-21T01:36:39;5.93;;;1.58;;
60225;SDS011;46090;48.436;11.410;2022-08-21T01:39:07;5.47;;;1.80;;
60225;SDS011;46090;48.436;11.410;2022-08-21T01:41:35;5.38;;;1.60;;
60225;SDS011;46090;48.436;11.410;2022-08-21T01:44:02;8.35;;;1.30;;
60225;SDS011;46090;48.436;11.410;2022-08-21T01:46:31;4.70;;;1.60;;
60225;SDS011;46090;48.436;11.410;2022-08-21T01:48:58;4.63;;;1.27;;
60225;SDS011;46090;48.436;11.410;2022-08-21T01:51:25;6.57;;;1.75;;
60225;SDS011;46090;48.436;11.410;2022-08-21T01:53:53;6.75;;;1.35;;
60225;SDS011;46090;48.436;11.410;2022-08-21T01:56:20;5.10;;;1.65;;
60225;SDS011;46090;48.436;11.410;2022-08-21T01:58:51;7.30;;;1.50;;
60225;SDS011;46090;48.436;11.410;2022-08-21T02:01:19;11.60;;;1.95;;
60225;SDS011;46090;48.436;11.410;2022-08-21T02:03:49;6.28;;;1.85;;
60225;SDS011;46090;48.436;11.410;2022-08-21T02:06:20;4.47;;;1.77;;
60225;SDS011;46090;48.436;11.410;2022-08-21T02:08:49;4.25;;;1.30;;
60225;SDS011;46090;48.436;11.410;2022-08-21T02:11:18;3.20;;;1.15;;
60225;SDS011;46090;48.436;11.410;2022-08-21T02:13:46;3.42;;;1.35;;
60225;SDS011;46090;48.436;11.410;2022-08-21T02:16:14;5.47;;;2.13;;
60225;SDS011;46090;48.436;11.410;2022-08-21T02:18:46;3.83;;;1.58;;
60225;SDS011;46090;48.436;11.410;2022-08-21T02:21:14;3.67;;;1.38;;
60225;SDS011;46090;48.436;11.410;2022-08-21T02:23:42;3.30;;;1.17;;
60225;SDS011;46090;48.436;11.410;2022-08-21T02:26:10;5.47;;;1.65;;
60225;SDS011;46090;48.436;11.410;2022-08-21T02:28:38;4.00;;;1.60;;
60225;SDS011;46090;48.436;11.410;2022-08-21T02:31:06;4.93;;;1.60;;
60225;SDS011;46090;48.436;11.410;2022-08-21T02:33:35;5.85;;;1.33;;
60225;SDS011;46090;48.436;11.410;2022-08-21T02:36:07;4.53;;;1.70;;
60225;SDS011;46090;48.436;11.410;2022-08-21T02:38:37;3.65;;;1.60;;
60225;SDS011;46090;48.436;11.410;2022-08-21T02:41:07;5.25;;;1.88;;
60225;SDS011;46090;48.436;11.410;2022-08-21T02:43:38;6.03;;;1.70;;
60225;SDS011;46090;48.436;11.410;2022-08-21T02:46:06;5.80;;;1.60;;
60225;SDS011;46090;48.436;11.410;2022-08-21T02:48:35;5.53;;;1.75;;
60225;SDS011;46090;48.436;11.410;2022-08-21T02:51:05;4.00;;;1.80;;
60225;SDS011;46090;48.436;11.410;2022-08-21T02:53:33;4.68;;;1.65;;
60225;SDS011;46090;48.436;11.410;2022-08-21T02:56:02;6.32;;;1.70;;
60225;SDS011;46090;48.436;11.410;2022-08-21T02:58:31;4.30;;;1.70;;
60225;SDS011;46090;48.436;11.410;2022-08-21T03:01:02;3.88;;;1.60;;
60225;SDS011;46090;48.436;11.410;2022-08-21T03:03:30;3.63;;;1.50;;
60225;SDS011;46090;48.436;11.410;2022-08-21T03:05:57;7.93;;;1.85;;
60225;SDS011;46090;48.436;11.410;2022-08-21T03:08:24;8.43;;;1.80;;
60225;SDS011;46090;48.436;11.410;2022-08-21T03:10:53;7.85;;;1.40;;
60225;SDS011;46090;48.436;11.410;2022-08-21T03:13:20;4.70;;;1.63;;
60225;SDS011;46090;48.436;11.410;2022-08-21T03:15:48;5.93;;;1.65;;
60225;SDS011;46090;48.436;11.410;2022-08-21T03:18:17;5.22;;;1.65;;
60225;SDS011;46090;48.436;11.410;2022-08-21T03:20:44;3.85;;;1.50;;
60225;SDS011;46090;48.436;11.410;2022-08-21T03:23:15;6.47;;;1.83;;
60225;SDS011;46090;48.436;11.410;2022-08-21T03:25:45;3.97;;;1.75;;
60225;SDS011;46090;48.436;11.410;2022-08-21T03:28:14;4.97;;;1.55;;
60225;SDS011;46090;48.436;11.410;2022-08-21T03:30:46;4.35;;;1.73;;
60225;SDS011;46090;48.436;11.410;2022-08-21T03:33:14;4.85;;;1.50;;
60225;SDS011;46090;48.436;11.410;2022-08-21T03:35:43;5.00;;;1.65;;
60225;SDS011;46090;48.436;11.410;2022-08-21T03:38:11;7.95;;;1.90;;
60225;SDS011;46090;48.436;11.410;2022-08-21T03:40:40;4.95;;;1.50;;
60225;SDS011;46090;48.436;11.410;2022-08-21T03:43:08;5.43;;;1.98;;
60225;SDS011;46090;48.436;11.410;2022-08-21T03:45:37;6.47;;;1.73;;
60225;SDS011;46090;48.436;11.410;2022-08-21T03:48:05;3.30;;;1.30;;
60225;SDS011;46090;48.436;11.410;2022-08-21T03:50:34;4.25;;;1.50;;
60225;SDS011;46090;48.436;11.410;2022-08-21T03:53:07;3.85;;;1.52;;
60225;SDS011;46090;48.436;11.410;2022-08-21T03:55:44;3.53;;;1.40;;
60225;SDS011;46090;48.436;11.410;2022-08-21T03:58:14;5.82;;;2.22;;
60225;SDS011;46090;48.436;11.410;2022-08-21T04:00:44;5.32;;;1.90;;
60225;SDS011;46090;48.436;11.410;2022-08-21T04:03:14;8.48;;;2.17;;
60225;SDS011;46090;48.436;11.410;2022-08-21T04:05:42;3.55;;;1.58;;
60225;SDS011;46090;48.436;11.410;2022-08-21T04:08:10;4.10;;;1.45;;
60225;SDS011;46090;48.436;11.410;2022-08-21T04:10:41;5.53;;;1.90;;
60225;SDS011;46090;48.436;11.410;2022-08-21T04:13:10;5.18;;;1.80;;
60225;SDS011;46090;48.436;11.410;2022-08-21T04:15:39;4.47;;;1.73;;
60225;SDS011;46090;48.436;11.410;2022-08-21T04:18:08;4.97;;;2.05;;
60225;SDS011;46090;48.436;11.410;2022-08-21T04:20:37;3.88;;;1.60;;
60225;SDS011;46090;48.436;11.410;2022-08-21T04:23:05;4.47;;;1.50;;
60225;SDS011;46090;48.436;11.410;2022-08-21T04:25:33;5.18;;;1.85;;
60225;SDS011;46090;48.436;11.410;2022-08-21T04:28:01;5.30;;;1.52;;
60225;SDS011;46090;48.436;11.410;2022-08-21T04:30:33;3.50;;;1.50;;
60225;SDS011;46090;48.436;11.410;2022-08-21T04:33:01;3.90;;;1.88;;
60225;SDS011;46090;48.436;11.410;2022-08-21T04:35:33;5.30;;;1.45;;
60225;SDS011;46090;48.436;11.410;2022-08-21T04:38:01;3.67;;;1.35;;
60225;SDS011;46090;48.436;11.410;2022-08-21T04:40:29;5.20;;;1.60;;
60225;SDS011;46090;48.436;11.410;2022-08-21T04:43:01;3.95;;;1.40;;
60225;SDS011;46090;48.436;11.410;2022-08-21T04:45:35;5.97;;;1.70;;
60225;SDS011;46090;48.436;11.410;2022-08-21T04:48:05;3.05;;;1.45;;
60225;SDS011;46090;48.436;11.410;2022-08-21T04:50:41;4.50;;;2.00;;
60225;SDS011;46090;48.436;11.410;2022-08-21T04:53:15;5.32;;;1.50;;
60225;SDS011;46090;48.436;11.410;2022-08-21T04:55:44;3.97;;;1.80;;
60225;SDS011;46090;48.436;11.410;2022-08-21T04:58:13;4.25;;;1.75;;
60225;SDS011;46090;48.436;11.410;2022-08-21T05:00:43;4.20;;;2.00;;
60225;SDS011;46090;48.436;11.410;2022-08-21T05:03:12;4.63;;;1.95;;
60225;SDS011;46090;48.436;11.410;2022-08-21T05:05:44;5.50;;;1.80;;
60225;SDS011;46090;48.436;11.410;2022-08-21T05:08:12;3.75;;;1.40;;
60225;SDS011;46090;48.436;11.410;2022-08-21T05:10:40;6.45;;;1.75;;
60225;SDS011;46090;48.436;11.410;2022-08-21T05:13:08;4.93;;;1.50;;
60225;SDS011;46090;48.436;11.410;2022-08-21T05:15:36;4.55;;;1.40;;
60225;SDS011;46090;48.436;11.410;2022-08-21T05:18:04;4.65;;;1.73;;
60225;SDS011;46090;48.436;11.410;2022-08-21T05:20:31;3.80;;;1.40;;
60225;SDS011;46090;48.436;11.410;2022-08-21T05:23:06;4.88;;;1.83;;
60225;SDS011;46090;48.436;11.410;2022-08-21T05:25:36;4.22;;;2.05;;
60225;SDS011;46090;48.436;11.410;2022-08-21T05:28:05;4.43;;;2.17;;
60225;SDS011;46090;48.436;11.410;2022-08-21T05:30:34;5.07;;;2.15;;
60225;SDS011;46090;48.436;11.410;2022-08-21T05:33:03;4.93;;;2.40;;
60225;SDS011;46090;48.436;11.410;2022-08-21T05:35:31;4.88;;;2.30;;
60225;SDS011;46090;48.436;11.410;2022-08-21T05:37:59;4.72;;;2.22;;
60225;SDS011;46090;48.436;11.410;2022-08-21T05:40:28;5.15;;;2.05;;
60225;SDS011;46090;48.436;11.410;2022-08-21T05:42:57;6.68;;;2.20;;
60225;SDS011;46090;48.436;11.410;2022-08-21T05:45:30;5.43;;;2.38;;
60225;SDS011;46090;48.436;11.410;2022-08-21T05:48:22;5.90;;;2.08;;
60225;SDS011;46090;48.436;11.410;2022-08-21T05:50:50;8.15;;;2.30;;
60225;SDS011;46090;48.436;11.410;2022-08-21T05:53:18;7.68;;;3.05;;
60225;SDS011;46090;48.436;11.410;2022-08-21T05:55:47;6.18;;;2.70;;
60225;SDS011;46090;48.436;11.410;2022-08-21T05:58:15;6.53;;;2.75;;
60225;SDS011;46090;48.436;11.410;2022-08-21T06:00:44;5.05;;;2.28;;
60225;SDS011;46090;48.436;11.410;2022-08-21T06:03:17;5.80;;;2.20;;
60225;SDS011;46090;48.436;11.410;2022-08-21T06:05:48;5.45;;;2.30;;
60225;SDS011;46090;48.436;11.410;2022-08-21T06:08:16;6.03;;;2.20;;
60225;SDS011;46090;48.436;11.410;2022-08-21T06:10:44;5.28;;;2.55;;
60225;SDS011;46090;48.436;11.410;2022-08-21T06:13:11;7.60;;;2.90;;
60225;SDS011;46090;48.436;11.410;2022-08-21T06:15:40;4.75;;;2.30;;
60225;SDS011;46090;48.436;11.410;2022-08-21T06:18:08;7.63;;;3.17;;
60225;SDS011;46090;48.436;11.410;2022-08-21T06:20:38;5.05;;;2.45;;
60225;SDS011;46090;48.436;11.410;2022-08-21T06:23:07;7.60;;;2.67;;
60225;SDS011;46090;48.436;11.410;2022-08-21T06:25:37;6.22;;;3.20;;
60225;SDS011;46090;48.436;11.410;2022-08-21T06:28:06;5.90;;;2.83;;
60225;SDS011;46090;48.436;11.410;2022-08-21T06:30:37;5.78;;;2.40;;
60225;SDS011;46090;48.436;11.410;2022-08-21T06:33:06;5.38;;;2.78;;
60225;SDS011;46090;48.436;11.410;2022-08-21T06:35:38;5.72;;;3.00;;
60225;SDS011;46090;48.436;11.410;2022-08-21T06:38:08;7.47;;;3.10;;
60225;SDS011;46090;48.436;11.410;2022-08-21T06:40:38;5.20;;;2.58;;
60225;SDS011;46090;48.436;11.410;2022-08-21T06:43:15;5.25;;;2.53;;
60225;SDS011;46090;48.436;11.410;2022-08-21T06:45:48;5.07;;;2.53;;
60225;SDS011;46090;48.436;11.410;2022-08-21T06:48:17;7.95;;;3.30;;
60225;SDS011;46090;48.436;11.410;2022-08-21T06:50:46;7.00;;;2.70;;
60225;SDS011;46090;48.436;11.410;2022-08-21T06:53:14;5.28;;;2.75;;
60225;SDS011;46090;48.436;11.410;2022-08-21T06:55:45;8.18;;;2.55;;
60225;SDS011;46090;48.436;11.410;2022-08-21T06:58:13;5.97;;;2.97;;
60225;SDS011;46090;48.436;11.410;2022-08-21T07:00:41;9.02;;;2.88;;
60225;SDS011;46090;48.436;11.410;2022-08-21T07:03:21;5.75;;;2.70;;
60225;SDS011;46090;48.436;11.410;2022-08-21T07:05:59;5.15;;;2.45;;
60225;SDS011;46090;48.436;11.410;2022-08-21T07:08:28;7.00;;;3.10;;
60225;SDS011;46090;48.436;11.410;2022-08-21T07:10:57;6.68;;;3.00;;
60225;SDS011;46090;48.436;11.410;2022-08-21T07:13:25;8.60;;;3.35;;
60225;SDS011;46090;48.436;11.410;2022-08-21T07:15:54;9.27;;;3.20;;
60225;SDS011;46090;48.436;11.410;2022-08-21T07:18:24;5.97;;;2.75;;
60225;SDS011;46090;48.436;11.410;2022-08-21T07:20:51;7.25;;;2.83;;
60225;SDS011;46090;48.436;11.410;2022-08-21T07:23:24;7.47;;;3.10;;
60225;SDS011;46090;48.436;11.410;2022-08-21T07:25:53;5.90;;;3.47;;
60225;SDS011;46090;48.436;11.410;2022-08-21T07:28:20;8.32;;;3.28;;
60225;SDS011;46090;48.436;11.410;2022-08-21T07:30:56;7.07;;;3.58;;
60225;SDS011;46090;48.436;11.410;2022-08-21T07:33:24;7.13;;;3.97;;
60225;SDS011;46090;48.436;11.410;2022-08-21T07:35:52;8.43;;;3.75;;
60225;SDS011;46090;48.436;11.410;2022-08-21T07:38:20;6.05;;;2.90;;
60225;SDS011;46090;48.436;11.410;2022-08-21T07:40:48;7.38;;;3.50;;
60225;SDS011;46090;48.436;11.410;2022-08-21T07:43:16;5.78;;;3.33;;
60225;SDS011;46090;48.436;11.410;2022-08-21T07:45:45;9.50;;;3.92;;
60225;SDS011;46090;48.436;11.410;2022-08-21T07:48:12;5.72;;;2.90;;
60225;SDS011;46090;48.436;11.410;2022-08-21T07:50:39;8.82;;;3.63;;
60225;SDS011;46090;48.436;11.410;2022-08-21T07:53:07;8.20;;;3.72;;
60225;SDS011;46090;48.436;11.410;2022-08-21T07:55:35;8.40;;;3.88;;
60225;SDS011;46090;48.436;11.410;2022-08-21T07:58:02;6.95;;;3.47;;
60225;SDS011;46090;48.436;11.410;2022-08-21T08:00:29;8.50;;;3.60;;
60225;SDS011;46090;48.436;11.410;2022-08-21T08:02:58;10.63;;;3.88;;
60225;SDS011;46090;48.436;11.410;2022-08-21T08:05:29;6.70;;;3.35;;
60225;SDS011;46090;48.436;11.410;2022-08-21T08:07:58;9.38;;;3.75;;
60225;SDS011;46090;48.436;11.410;2022-08-21T08:10:26;6.60;;;3.33;;
60225;SDS011;46090;48.436;11.410;2022-08-21T08:12:54;8.80;;;3.90;;
60225;SDS011;46090;48.436;11.410;2022-08-21T08:15:23;8.10;;;3.72;;
60225;SDS011;46090;48.436;11.410;2022-08-21T08:17:53;5.88;;;3.50;;
60225;SDS011;46090;48.436;11.410;2022-08-21T08:20:23;9.55;;;4.40;;
60225;SDS011;46090;48.436;11.410;2022-08-21T08:22:56;6.45;;;3.75;;
60225;SDS011;46090;48.436;11.410;2022-08-21T08:25:28;8.80;;;3.58;;
60225;SDS011;46090;48.436;11.410;2022-08-21T08:28:05;7.70;;;4.00;;
60225;SDS011;46090;48.436;11.410;2022-08-21T08:30:47;7.05;;;3.78;;
60225;SDS011;46090;48.436;11.410;2022-08-21T08:33:16;7.85;;;3.63;;
60225;SDS011;46090;48.436;11.410;2022-08-21T08:35:44;7.80;;;4.13;;
60225;SDS011;46090;48.436;11.410;2022-08-21T08:38:17;8.20;;;4.38;;
60225;SDS011;46090;48.436;11.410;2022-08-21T08:43:21;6.85;;;3.90;;
60225;SDS011;46090;48.436;11.410;2022-08-21T08:45:50;8.93;;;4.18;;
60225;SDS011;46090;48.436;11.410;2022-08-21T08:48:31;7.45;;;4.57;;
60225;SDS011;46090;48.436;11.410;2022-08-21T08:51:03;7.82;;;4.13;;
60225;SDS011;46090;48.436;11.410;2022-08-21T08:53:45;6.57;;;3.42;;
60225;SDS011;46090;48.436;11.410;2022-08-21T08:56:15;6.82;;;3.97;;
60225;SDS011;46090;48.436;11.410;2022-08-21T08:58:44;7.70;;;3.75;;
60225;SDS011;46090;48.436;11.410;2022-08-21T09:01:14;8.43;;;3.80;;
60225;SDS011;46090;48.436;11.410;2022-08-21T09:03:45;6.88;;;3.88;;
60225;SDS011;46090;48.436;11.410;2022-08-21T09:06:42;8.40;;;3.88;;
60225;SDS011;46090;48.436;11.410;2022-08-21T09:12:05;7.25;;;3.38;;
60225;SDS011;46090;48.436;11.410;2022-08-21T09:28:39;7.40;;;3.80;;
60225;SDS011;46090;48.436;11.410;2022-08-21T09:31:08;4.95;;;2.50;;
60225;SDS011;46090;48.436;11.410;2022-08-21T09:33:41;7.32;;;3.10;;
60225;SDS011;46090;48.436;11.410;2022-08-21T09:36:08;5.45;;;2.75;;
60225;SDS011;46090;48.436;11.410;2022-08-21T09:38:35;4.97;;;2.30;;
60225;SDS011;46090;48.436;11.410;2022-08-21T09:41:05;6.55;;;3.05;;
60225;SDS011;46090;48.436;11.410;2022-08-21T09:43:37;7.18;;;3.40;;
60225;SDS011;46090;48.436;11.410;2022-08-21T09:46:12;6.15;;;2.88;;
60225;SDS011;46090;48.436;11.410;2022-08-21T09:48:49;4.57;;;2.17;;
60225;SDS011;46090;48.436;11.410;2022-08-21T09:51:20;5.55;;;2.22;;
60225;SDS011;46090;48.436;11.410;2022-08-21T09:53:51;5.45;;;1.75;;
60225;SDS011;46090;48.436;11.410;2022-08-21T09:56:28;5.88;;;2.45;;
60225;SDS011;46090;48.436;11.410;2022-08-21T09:59:17;4.70;;;1.83;;
60225;SDS011;46090;48.436;11.410;2022-08-21T10:02:25;5.40;;;2.17;;
60225;SDS011;46090;48.436;11.410;2022-08-21T10:04:58;4.68;;;1.77;;
60225;SDS011;46090;48.436;11.410;2022-08-21T10:07:47;4.75;;;2.10;;
60225;SDS011;46090;48.436;11.410;2022-08-21T10:10:19;4.30;;;2.10;;
60225;SDS011;46090;48.436;11.410;2022-08-21T10:18:38;4.47;;;1.70;;
60225;SDS011;46090;48.436;11.410;2022-08-21T10:23:58;4.40;;;1.70;;
60225;SDS011;46090;48.436;11.410;2022-08-21T10:29:38;7.50;;;1.88;;
60225;SDS011;46090;48.436;11.410;2022-08-21T10:35:56;3.33;;;1.33;;
60225;SDS011;46090;48.436;11.410;2022-08-21T10:38:29;4.40;;;1.90;;
60225;SDS011;46090;48.436;11.410;2022-08-21T10:44:30;3.63;;;1.50;;
60225;SDS011;46090;48.436;11.410;2022-08-21T10:47:25;6.97;;;1.55;;
60225;SDS011;46090;48.436;11.410;2022-08-21T10:50:08;4.50;;;1.65;;
60225;SDS011;46090;48.436;11.410;2022-08-21T10:55:52;3.40;;;1.48;;
60225;SDS011;46090;48.436;11.410;2022-08-21T10:58:34;3.47;;;1.33;;
60225;SDS011;46090;48.436;11.410;2022-08-21T11:01:07;6.90;;;1.20;;
60225;SDS011;46090;48.436;11.410;2022-08-21T11:03:42;3.13;;;1.13;;
60225;SDS011;46090;48.436;11.410;2022-08-21T11:08:42;11.93;;;1.20;;
60225;SDS011;46090;48.436;11.410;2022-08-21T11:11:24;4.60;;;1.33;;
60225;SDS011;46090;48.436;11.410;2022-08-21T11:17:16;4.13;;;1.35;;
60225;SDS011;46090;48.436;11.410;2022-08-21T11:22:43;4.68;;;1.45;;
60225;SDS011;46090;48.436;11.410;2022-08-21T11:25:23;3.65;;;1.30;;
60225;SDS011;46090;48.436;11.410;2022-08-21T11:28:05;4.53;;;1.27;;
60225;SDS011;46090;48.436;11.410;2022-08-21T11:31:28;4.93;;;1.17;;
60225;SDS011;46090;48.436;11.410;2022-08-21T11:42:47;2.70;;;1.02;;
60225;SDS011;46090;48.436;11.410;2022-08-21T11:50:57;5.10;;;1.17;;
60225;SDS011;46090;48.436;11.410;2022-08-21T11:53:28;5.63;;;1.17;;
60225;SDS011;46090;48.436;11.410;2022-08-21T11:56:05;3.88;;;1.00;;
60225;SDS011;46090;48.436;11.410;2022-08-21T12:01:22;3.45;;;1.13;;
60225;SDS011;46090;48.436;11.410;2022-08-21T12:03:57;2.72;;;0.90;;
60225;SDS011;46090;48.436;11.410;2022-08-21T12:06:34;2.88;;;1.10;;
60225;SDS011;46090;48.436;11.410;2022-08-21T12:09:38;3.88;;;0.93;;
60225;SDS011;46090;48.436;11.410;2022-08-21T12:12:11;5.85;;;1.10;;
60225;SDS011;46090;48.436;11.410;2022-08-21T12:15:06;2.85;;;1.23;;
60225;SDS011;46090;48.436;11.410;2022-08-21T12:17:51;3.17;;;1.00;;
60225;SDS011;46090;48.436;11.410;2022-08-21T12:25:59;4.95;;;0.80;;
60225;SDS011;46090;48.436;11.410;2022-08-21T12:28:28;2.63;;;0.90;;
60225;SDS011;46090;48.436;11.410;2022-08-21T12:30:57;3.22;;;1.08;;
60225;SDS011;46090;48.436;11.410;2022-08-21T12:33:32;3.33;;;1.08;;
60225;SDS011;46090;48.436;11.410;2022-08-21T12:36:03;2.63;;;0.80;;
60225;SDS011;46090;48.436;11.410;2022-08-21T12:38:48;3.13;;;0.90;;
60225;SDS011;46090;48.436;11.410;2022-08-21T12:41:29;5.75;;;1.15;;
60225;SDS011;46090;48.436;11.410;2022-08-21T12:44:13;5.82;;;1.00;;
60225;SDS011;46090;48.436;11.410;2022-08-21T12:46:45;2.60;;;0.73;;
60225;SDS011;46090;48.436;11.410;2022-08-21T12:49:22;4.15;;;0.75;;
60225;SDS011;46090;48.436;11.410;2022-08-21T12:52:14;2.38;;;0.60;;
60225;SDS011;46090;48.436;11.410;2022-08-21T12:54:47;4.82;;;1.13;;
60225;SDS011;46090;48.436;11.410;2022-08-21T12:57:25;3.83;;;0.93;;
60225;SDS011;46090;48.436;11.410;2022-08-21T12:59:59;4.70;;;0.95;;
60225;SDS011;46090;48.436;11.410;2022-08-21T13:02:30;4.43;;;1.00;;
60225;SDS011;46090;48.436;11.410;2022-08-21T13:05:04;2.88;;;1.00;;
60225;SDS011;46090;48.436;11.410;2022-08-21T13:07:34;2.50;;;0.80;;
60225;SDS011;46090;48.436;11.410;2022-08-21T13:12:33;4.32;;;1.23;;
60225;SDS011;46090;48.436;11.410;2022-08-21T13:15:02;3.67;;;1.00;;
60225;SDS011;46090;48.436;11.410;2022-08-21T13:17:36;3.67;;;1.25;;
60225;SDS011;46090;48.436;11.410;2022-08-21T13:20:18;3.63;;;1.10;;
60225;SDS011;46090;48.436;11.410;2022-08-21T13:22:51;3.88;;;1.25;;
60225;SDS011;46090;48.436;11.410;2022-08-21T13:25:20;4.75;;;1.27;;
60225;SDS011;46090;48.436;11.410;2022-08-21T13:28:08;3.35;;;1.27;;
60225;SDS011;46090;48.436;11.410;2022-08-21T13:30:40;3.83;;;1.30;;
60225;SDS011;46090;48.436;11.410;2022-08-21T13:33:10;4.85;;;1.30;;
60225;SDS011;46090;48.436;11.410;2022-08-21T13:35:46;3.35;;;1.48;;
60225;SDS011;46090;48.436;11.410;2022-08-21T13:38:25;3.55;;;1.08;;
60225;SDS011;46090;48.436;11.410;2022-08-21T13:41:37;2.53;;;0.80;;
60225;SDS011;46090;48.436;11.410;2022-08-21T13:43:59;3.92;;;1.33;;
60225;SDS011;46090;48.436;11.410;2022-08-21T13:46:32;2.80;;;1.13;;
60225;SDS011;46090;48.436;11.410;2022-08-21T13:49:02;6.07;;;1.10;;
60225;SDS011;46090;48.436;11.410;2022-08-21T13:51:32;2.97;;;1.02;;
60225;SDS011;46090;48.436;11.410;2022-08-21T13:53:59;3.53;;;1.23;;
60225;SDS011;46090;48.436;11.410;2022-08-21T13:56:28;3.78;;;1.30;;
60225;SDS011;46090;48.436;11.410;2022-08-21T13:58:58;5.13;;;1.20;;
60225;SDS011;46090;48.436;11.410;2022-08-21T14:01:28;5.18;;;1.23;;
60225;SDS011;46090;48.436;11.410;2022-08-21T14:04:01;3.55;;;1.35;;
60225;SDS011;46090;48.436;11.410;2022-08-21T14:06:35;3.38;;;1.40;;
60225;SDS011;46090;48.436;11.410;2022-08-21T14:09:11;4.35;;;1.48;;
60225;SDS011;46090;48.436;11.410;2022-08-21T14:14:31;3.78;;;1.35;;
60225;SDS011;46090;48.436;11.410;2022-08-21T14:17:01;4.35;;;1.33;;
60225;SDS011;46090;48.436;11.410;2022-08-21T14:19:51;6.20;;;1.27;;
60225;SDS011;46090;48.436;11.410;2022-08-21T14:25:13;2.40;;;1.10;;
60225;SDS011;46090;48.436;11.410;2022-08-21T14:27:43;3.92;;;1.40;;
60225;SDS011;46090;48.436;11.410;2022-08-21T14:30:29;4.78;;;1.08;;
60225;SDS011;46090;48.436;11.410;2022-08-21T14:33:02;4.00;;;1.30;;
60225;SDS011;46090;48.436;11.410;2022-08-21T14:35:32;3.35;;;1.20;;
60225;SDS011;46090;48.436;11.410;2022-08-21T14:38:00;4.97;;;1.25;;
60225;SDS011;46090;48.436;11.410;2022-08-21T14:40:29;3.88;;;1.30;;
60225;SDS011;46090;48.436;11.410;2022-08-21T14:42:56;3.90;;;1.50;;
60225;SDS011;46090;48.436;11.410;2022-08-21T14:45:29;3.50;;;1.25;;
60225;SDS011;46090;48.436;11.410;2022-08-21T14:47:57;3.35;;;1.30;;
60225;SDS011;46090;48.436;11.410;2022-08-21T14:50:26;5.13;;;1.25;;
60225;SDS011;46090;48.436;11.410;2022-08-21T14:52:54;4.72;;;1.25;;
60225;SDS011;46090;48.436;11.410;2022-08-21T14:55:21;3.38;;;1.33;;
60225;SDS011;46090;48.436;11.410;2022-08-21T14:57:49;4.13;;;1.30;;
60225;SDS011;46090;48.436;11.410;2022-08-21T15:00:20;4.03;;;1.33;;
60225;SDS011;46090;48.436;11.410;2022-08-21T15:03:01;3.80;;;1.50;;
60225;SDS011;46090;48.436;11.410;2022-08-21T15:05:29;3.55;;;1.23;;
60225;SDS011;46090;48.436;11.410;2022-08-21T15:07:59;4.15;;;1.00;;
60225;SDS011;46090;48.436;11.410;2022-08-21T15:10:27;3.60;;;1.10;;
60225;SDS011;46090;48.436;11.410;2022-08-21T15:12:55;3.33;;;1.02;;
60225;SDS011;46090;48.436;11.410;2022-08-21T15:15:21;3.35;;;1.20;;
60225;SDS011;46090;48.436;11.410;2022-08-21T15:17:48;4.13;;;1.05;;
60225;SDS011;46090;48.436;11.410;2022-08-21T15:20:15;4.05;;;1.17;;
60225;SDS011;46090;48.436;11.410;2022-08-21T15:22:42;4.07;;;1.13;;
60225;SDS011;46090;48.436;11.410;2022-08-21T15:25:13;5.55;;;1.52;;
60225;SDS011;46090;48.436;11.410;2022-08-21T15:27:41;4.20;;;1.35;;
60225;SDS011;46090;48.436;11.410;2022-08-21T15:30:08;3.42;;;0.90;;
60225;SDS011;46090;48.436;11.410;2022-08-21T15:32:35;3.28;;;1.02;;
60225;SDS011;46090;48.436;11.410;2022-08-21T15:35:04;2.55;;;0.98;;
60225;SDS011;46090;48.436;11.410;2022-08-21T15:37:32;4.97;;;1.23;;
60225;SDS011;46090;48.436;11.410;2022-08-21T15:40:00;5.30;;;0.93;;
60225;SDS011;46090;48.436;11.410;2022-08-21T15:42:27;7.07;;;0.98;;
60225;SDS011;46090;48.436;11.410;2022-08-21T15:44:54;4.70;;;1.10;;
60225;SDS011;46090;48.436;11.410;2022-08-21T15:47:30;4.03;;;1.20;;
60225;SDS011;46090;48.436;11.410;2022-08-21T15:50:00;4.28;;;1.20;;
60225;SDS011;46090;48.436;11.410;2022-08-21T15:52:28;2.70;;;0.90;;
60225;SDS011;46090;48.436;11.410;2022-08-21T15:54:55;3.33;;;1.00;;
60225;SDS011;46090;48.436;11.410;2022-08-21T15:57:23;4.95;;;1.05;;
60225;SDS011;46090;48.436;11.410;2022-08-21T15:59:52;2.78;;;1.00;;
60225;SDS011;46090;48.436;11.410;2022-08-21T16:02:43;3.15;;;1.13;;
60225;SDS011;46090;48.436;11.410;2022-08-21T16:05:15;3.78;;;1.02;;
60225;SDS011;46090;48.436;11.410;2022-08-21T16:07:48;3.65;;;0.93;;
60225;SDS011;46090;48.436;11.410;2022-08-21T16:10:19;3.33;;;1.00;;
60225;SDS011;46090;48.436;11.410;2022-08-21T16:12:54;2.63;;;1.10;;
60225;SDS011;46090;48.436;11.410;2022-08-21T16:15:23;2.60;;;1.17;;
60225;SDS011;46090;48.436;11.410;2022-08-21T16:17:53;2.55;;;1.00;;
60225;SDS011;46090;48.436;11.410;2022-08-21T16:20:22;3.03;;;0.90;;
60225;SDS011;46090;48.436;11.410;2022-08-21T16:22:52;5.80;;;0.90;;